sensor_id;sensor_type;location;lat;lon;timestamp;P1;durP1;ratioP1;P2;durP2;ratioP2
75655;SDS011;64252;51.094;13.714;2023-03-01T00:02:02;28.50;;;13.90;;
75655;SDS011;64252;51.094;13.714;2023-03-01T00:04:27;27.50;;;14.32;;
75655;SDS011;64252;51.094;13.714;2023-03-01T00:06:53;32.80;;;15.23;;
75655;SDS011;64252;51.094;13.714;2023-03-01T00:09:19;30.48;;;14.30;;
75655;SDS011;64252;51.094;13.714;2023-03-01T00:11:45;27.75;;;13.90;;
75655;SDS011;64252;51.094;13.714;2023-03-01T00:14:11;34.33;;;15.07;;
75655;SDS011;64252;51.094;13.714;2023-03-01T00:16:41;32.83;;;15.45;;
75655;SDS011;64252;51.094;13.714;2023-03-01T00:19:09;35.65;;;15.13;;
75655;SDS011;64252;51.094;13.714;2023-03-01T00:21:37;32.42;;;14.70;;
75655;SDS011;64252;51.094;13.714;2023-03-01T00:24:03;33.50;;;15.10;;
75655;SDS011;64252;51.094;13.714;2023-03-01T00:26:29;33.90;;;15.50;;
75655;SDS011;64252;51.094;13.714;2023-03-01T00:28:56;32.90;;;14.75;;
75655;SDS011;64252;51.094;13.714;2023-03-01T00:31:23;35.05;;;15.07;;
75655;SDS011;64252;51.094;13.714;2023-03-01T00:33:58;28.55;;;13.43;;
75655;SDS011;64252;51.094;13.714;2023-03-01T00:36:27;30.20;;;15.20;;
75655;SDS011;64252;51.094;13.714;2023-03-01T00:38:58;28.75;;;12.98;;
75655;SDS011;64252;51.094;13.714;2023-03-01T00:41:25;27.63;;;13.73;;
75655;SDS011;64252;51.094;13.714;2023-03-01T00:43:54;32.40;;;14.27;;
75655;SDS011;64252;51.094;13.714;2023-03-01T00:46:21;34.40;;;14.80;;
75655;SDS011;64252;51.094;13.714;2023-03-01T00:48:48;33.33;;;15.00;;
75655;SDS011;64252;51.094;13.714;2023-03-01T00:51:15;29.85;;;14.80;;
75655;SDS011;64252;51.094;13.714;2023-03-01T00:53:43;30.10;;;14.05;;
75655;SDS011;64252;51.094;13.714;2023-03-01T00:56:10;32.15;;;12.93;;
75655;SDS011;64252;51.094;13.714;2023-03-01T00:58:37;34.65;;;15.07;;
75655;SDS011;64252;51.094;13.714;2023-03-01T01:01:13;29.73;;;14.25;;
75655;SDS011;64252;51.094;13.714;2023-03-01T01:03:58;31.40;;;15.00;;
75655;SDS011;64252;51.094;13.714;2023-03-01T01:06:27;32.60;;;15.60;;
75655;SDS011;64252;51.094;13.714;2023-03-01T01:09:14;34.28;;;16.25;;
75655;SDS011;64252;51.094;13.714;2023-03-01T01:11:42;33.55;;;16.02;;
75655;SDS011;64252;51.094;13.714;2023-03-01T01:14:18;30.35;;;14.40;;
75655;SDS011;64252;51.094;13.714;2023-03-01T01:16:44;34.38;;;15.63;;
75655;SDS011;64252;51.094;13.714;2023-03-01T01:19:13;28.42;;;13.27;;
75655;SDS011;64252;51.094;13.714;2023-03-01T01:21:39;33.33;;;14.55;;
75655;SDS011;64252;51.094;13.714;2023-03-01T01:24:08;24.88;;;10.88;;
75655;SDS011;64252;51.094;13.714;2023-03-01T01:26:34;32.58;;;15.77;;
75655;SDS011;64252;51.094;13.714;2023-03-01T01:29:00;33.35;;;15.75;;
75655;SDS011;64252;51.094;13.714;2023-03-01T01:31:27;30.20;;;15.18;;
75655;SDS011;64252;51.094;13.714;2023-03-01T01:33:56;31.45;;;14.95;;
75655;SDS011;64252;51.094;13.714;2023-03-01T01:36:23;27.88;;;12.90;;
75655;SDS011;64252;51.094;13.714;2023-03-01T01:38:48;36.28;;;16.75;;
75655;SDS011;64252;51.094;13.714;2023-03-01T01:41:15;26.50;;;12.85;;
75655;SDS011;64252;51.094;13.714;2023-03-01T01:43:43;33.05;;;14.48;;
75655;SDS011;64252;51.094;13.714;2023-03-01T01:48:41;31.25;;;15.00;;
75655;SDS011;64252;51.094;13.714;2023-03-01T01:51:11;27.88;;;11.23;;
75655;SDS011;64252;51.094;13.714;2023-03-01T01:53:40;30.73;;;14.60;;
75655;SDS011;64252;51.094;13.714;2023-03-01T01:56:09;34.08;;;15.30;;
75655;SDS011;64252;51.094;13.714;2023-03-01T01:58:38;30.25;;;13.85;;
75655;SDS011;64252;51.094;13.714;2023-03-01T02:01:06;32.75;;;15.02;;
75655;SDS011;64252;51.094;13.714;2023-03-01T02:03:33;34.75;;;15.75;;
75655;SDS011;64252;51.094;13.714;2023-03-01T02:08:46;31.17;;;14.15;;
75655;SDS011;64252;51.094;13.714;2023-03-01T02:11:15;31.15;;;14.95;;
75655;SDS011;64252;51.094;13.714;2023-03-01T02:13:41;33.90;;;15.88;;
75655;SDS011;64252;51.094;13.714;2023-03-01T02:16:09;33.47;;;15.57;;
75655;SDS011;64252;51.094;13.714;2023-03-01T02:18:37;31.52;;;14.48;;
75655;SDS011;64252;51.094;13.714;2023-03-01T02:23:37;27.73;;;13.85;;
75655;SDS011;64252;51.094;13.714;2023-03-01T02:26:18;36.28;;;13.77;;
75655;SDS011;64252;51.094;13.714;2023-03-01T02:28:49;34.53;;;14.65;;
75655;SDS011;64252;51.094;13.714;2023-03-01T02:31:18;38.15;;;14.90;;
75655;SDS011;64252;51.094;13.714;2023-03-01T02:34:04;34.00;;;14.65;;
75655;SDS011;64252;51.094;13.714;2023-03-01T02:36:39;35.45;;;15.55;;
75655;SDS011;64252;51.094;13.714;2023-03-01T02:41:41;31.45;;;13.05;;
75655;SDS011;64252;51.094;13.714;2023-03-01T02:44:11;32.47;;;13.85;;
75655;SDS011;64252;51.094;13.714;2023-03-01T02:46:44;31.48;;;14.45;;
75655;SDS011;64252;51.094;13.714;2023-03-01T02:49:24;28.90;;;13.63;;
75655;SDS011;64252;51.094;13.714;2023-03-01T02:54:51;25.92;;;11.98;;
75655;SDS011;64252;51.094;13.714;2023-03-01T02:57:23;33.78;;;15.10;;
75655;SDS011;64252;51.094;13.714;2023-03-01T02:59:53;27.30;;;12.75;;
75655;SDS011;64252;51.094;13.714;2023-03-01T03:02:21;30.83;;;15.48;;
75655;SDS011;64252;51.094;13.714;2023-03-01T03:05:06;30.52;;;14.70;;
75655;SDS011;64252;51.094;13.714;2023-03-01T03:07:38;24.83;;;12.52;;
75655;SDS011;64252;51.094;13.714;2023-03-01T03:10:07;31.08;;;14.93;;
75655;SDS011;64252;51.094;13.714;2023-03-01T03:12:36;29.30;;;13.95;;
75655;SDS011;64252;51.094;13.714;2023-03-01T03:15:03;27.42;;;12.05;;
75655;SDS011;64252;51.094;13.714;2023-03-01T03:17:37;27.67;;;11.93;;
75655;SDS011;64252;51.094;13.714;2023-03-01T03:20:04;34.00;;;15.75;;
75655;SDS011;64252;51.094;13.714;2023-03-01T03:22:36;37.45;;;15.93;;
75655;SDS011;64252;51.094;13.714;2023-03-01T03:25:02;32.20;;;15.45;;
75655;SDS011;64252;51.094;13.714;2023-03-01T03:27:28;30.73;;;13.65;;
75655;SDS011;64252;51.094;13.714;2023-03-01T03:29:53;32.63;;;14.25;;
75655;SDS011;64252;51.094;13.714;2023-03-01T03:32:19;33.00;;;14.55;;
75655;SDS011;64252;51.094;13.714;2023-03-01T03:34:44;36.20;;;16.40;;
75655;SDS011;64252;51.094;13.714;2023-03-01T03:37:10;34.08;;;15.32;;
75655;SDS011;64252;51.094;13.714;2023-03-01T03:39:55;34.83;;;15.02;;
75655;SDS011;64252;51.094;13.714;2023-03-01T03:42:21;33.25;;;15.52;;
75655;SDS011;64252;51.094;13.714;2023-03-01T03:44:47;35.72;;;15.60;;
75655;SDS011;64252;51.094;13.714;2023-03-01T03:47:13;32.45;;;15.50;;
75655;SDS011;64252;51.094;13.714;2023-03-01T03:49:39;27.58;;;12.05;;
75655;SDS011;64252;51.094;13.714;2023-03-01T03:52:05;33.63;;;16.15;;
75655;SDS011;64252;51.094;13.714;2023-03-01T03:54:39;35.35;;;15.95;;
75655;SDS011;64252;51.094;13.714;2023-03-01T03:57:06;35.55;;;16.27;;
75655;SDS011;64252;51.094;13.714;2023-03-01T03:59:31;33.13;;;15.15;;
75655;SDS011;64252;51.094;13.714;2023-03-01T04:01:57;31.80;;;16.17;;
75655;SDS011;64252;51.094;13.714;2023-03-01T04:04:23;35.05;;;14.60;;
75655;SDS011;64252;51.094;13.714;2023-03-01T04:06:48;33.80;;;15.80;;
75655;SDS011;64252;51.094;13.714;2023-03-01T04:09:14;35.97;;;15.88;;
75655;SDS011;64252;51.094;13.714;2023-03-01T04:11:39;30.20;;;11.77;;
75655;SDS011;64252;51.094;13.714;2023-03-01T04:14:05;31.70;;;15.07;;
75655;SDS011;64252;51.094;13.714;2023-03-01T04:16:31;34.15;;;15.55;;
75655;SDS011;64252;51.094;13.714;2023-03-01T04:18:56;32.63;;;14.95;;
75655;SDS011;64252;51.094;13.714;2023-03-01T04:21:24;29.77;;;12.27;;
75655;SDS011;64252;51.094;13.714;2023-03-01T04:23:50;34.20;;;14.57;;
75655;SDS011;64252;51.094;13.714;2023-03-01T04:26:19;34.42;;;15.35;;
75655;SDS011;64252;51.094;13.714;2023-03-01T04:28:45;33.55;;;14.65;;
75655;SDS011;64252;51.094;13.714;2023-03-01T04:31:14;30.95;;;14.90;;
75655;SDS011;64252;51.094;13.714;2023-03-01T04:36:12;36.08;;;16.13;;
75655;SDS011;64252;51.094;13.714;2023-03-01T04:38:39;36.90;;;15.65;;
75655;SDS011;64252;51.094;13.714;2023-03-01T04:41:06;35.05;;;15.95;;
75655;SDS011;64252;51.094;13.714;2023-03-01T04:43:33;33.92;;;15.48;;
75655;SDS011;64252;51.094;13.714;2023-03-01T04:46:09;31.98;;;14.85;;
75655;SDS011;64252;51.094;13.714;2023-03-01T04:48:37;31.95;;;13.75;;
75655;SDS011;64252;51.094;13.714;2023-03-01T04:51:04;29.20;;;13.80;;
75655;SDS011;64252;51.094;13.714;2023-03-01T04:53:31;34.05;;;14.90;;
75655;SDS011;64252;51.094;13.714;2023-03-01T04:55:57;30.35;;;14.73;;
75655;SDS011;64252;51.094;13.714;2023-03-01T04:58:24;36.78;;;15.63;;
75655;SDS011;64252;51.094;13.714;2023-03-01T05:00:51;38.15;;;15.90;;
75655;SDS011;64252;51.094;13.714;2023-03-01T05:03:18;31.52;;;14.93;;
75655;SDS011;64252;51.094;13.714;2023-03-01T05:05:45;39.88;;;16.33;;
75655;SDS011;64252;51.094;13.714;2023-03-01T05:08:12;38.15;;;16.30;;
75655;SDS011;64252;51.094;13.714;2023-03-01T05:10:52;26.00;;;12.30;;
75655;SDS011;64252;51.094;13.714;2023-03-01T05:13:18;33.13;;;14.90;;
75655;SDS011;64252;51.094;13.714;2023-03-01T05:15:49;33.85;;;14.00;;
75655;SDS011;64252;51.094;13.714;2023-03-01T05:18:20;34.30;;;15.45;;
75655;SDS011;64252;51.094;13.714;2023-03-01T05:20:45;36.67;;;15.25;;
75655;SDS011;64252;51.094;13.714;2023-03-01T05:23:12;35.03;;;14.13;;
75655;SDS011;64252;51.094;13.714;2023-03-01T05:25:38;31.67;;;14.90;;
75655;SDS011;64252;51.094;13.714;2023-03-01T05:28:07;32.85;;;13.77;;
75655;SDS011;64252;51.094;13.714;2023-03-01T05:30:36;28.55;;;12.07;;
75655;SDS011;64252;51.094;13.714;2023-03-01T05:33:04;31.67;;;14.82;;
75655;SDS011;64252;51.094;13.714;2023-03-01T05:35:35;28.33;;;11.98;;
75655;SDS011;64252;51.094;13.714;2023-03-01T05:38:01;30.00;;;14.05;;
75655;SDS011;64252;51.094;13.714;2023-03-01T05:40:26;29.20;;;14.07;;
75655;SDS011;64252;51.094;13.714;2023-03-01T05:42:55;32.28;;;14.32;;
75655;SDS011;64252;51.094;13.714;2023-03-01T05:45:23;30.38;;;13.90;;
75655;SDS011;64252;51.094;13.714;2023-03-01T05:47:50;27.20;;;11.95;;
75655;SDS011;64252;51.094;13.714;2023-03-01T05:50:18;29.75;;;13.65;;
75655;SDS011;64252;51.094;13.714;2023-03-01T05:52:49;34.05;;;14.75;;
75655;SDS011;64252;51.094;13.714;2023-03-01T05:55:18;33.92;;;15.20;;
75655;SDS011;64252;51.094;13.714;2023-03-01T05:57:45;29.80;;;14.60;;
75655;SDS011;64252;51.094;13.714;2023-03-01T06:00:12;31.92;;;14.43;;
75655;SDS011;64252;51.094;13.714;2023-03-01T06:02:39;35.40;;;14.95;;
75655;SDS011;64252;51.094;13.714;2023-03-01T06:05:06;35.35;;;15.45;;
75655;SDS011;64252;51.094;13.714;2023-03-01T06:07:34;37.65;;;15.10;;
75655;SDS011;64252;51.094;13.714;2023-03-01T06:10:00;33.28;;;14.35;;
75655;SDS011;64252;51.094;13.714;2023-03-01T06:12:29;29.77;;;13.77;;
75655;SDS011;64252;51.094;13.714;2023-03-01T06:14:56;32.13;;;14.48;;
75655;SDS011;64252;51.094;13.714;2023-03-01T06:17:21;32.33;;;14.20;;
75655;SDS011;64252;51.094;13.714;2023-03-01T06:19:47;32.55;;;14.45;;
75655;SDS011;64252;51.094;13.714;2023-03-01T06:22:13;33.22;;;13.85;;
75655;SDS011;64252;51.094;13.714;2023-03-01T06:24:38;31.10;;;13.85;;
75655;SDS011;64252;51.094;13.714;2023-03-01T06:27:04;30.33;;;14.73;;
75655;SDS011;64252;51.094;13.714;2023-03-01T06:29:29;28.77;;;13.02;;
75655;SDS011;64252;51.094;13.714;2023-03-01T06:31:55;37.28;;;14.23;;
75655;SDS011;64252;51.094;13.714;2023-03-01T06:34:21;29.20;;;12.82;;
75655;SDS011;64252;51.094;13.714;2023-03-01T06:36:46;28.58;;;12.55;;
75655;SDS011;64252;51.094;13.714;2023-03-01T06:39:13;28.67;;;12.65;;
75655;SDS011;64252;51.094;13.714;2023-03-01T06:41:38;25.67;;;12.25;;
75655;SDS011;64252;51.094;13.714;2023-03-01T06:44:05;30.95;;;13.68;;
75655;SDS011;64252;51.094;13.714;2023-03-01T06:46:36;32.75;;;15.48;;
75655;SDS011;64252;51.094;13.714;2023-03-01T06:49:01;32.90;;;15.40;;
75655;SDS011;64252;51.094;13.714;2023-03-01T06:51:33;34.22;;;14.98;;
75655;SDS011;64252;51.094;13.714;2023-03-01T06:53:58;33.42;;;13.57;;
75655;SDS011;64252;51.094;13.714;2023-03-01T06:56:24;32.60;;;13.80;;
75655;SDS011;64252;51.094;13.714;2023-03-01T06:58:50;29.63;;;14.27;;
75655;SDS011;64252;51.094;13.714;2023-03-01T07:01:16;30.08;;;13.82;;
75655;SDS011;64252;51.094;13.714;2023-03-01T07:03:42;30.65;;;13.73;;
75655;SDS011;64252;51.094;13.714;2023-03-01T07:06:09;28.35;;;12.80;;
75655;SDS011;64252;51.094;13.714;2023-03-01T07:08:35;26.35;;;12.25;;
75655;SDS011;64252;51.094;13.714;2023-03-01T07:11:01;27.67;;;13.25;;
75655;SDS011;64252;51.094;13.714;2023-03-01T07:13:29;30.77;;;13.98;;
75655;SDS011;64252;51.094;13.714;2023-03-01T07:15:57;26.20;;;12.85;;
75655;SDS011;64252;51.094;13.714;2023-03-01T07:18:22;28.80;;;14.07;;
75655;SDS011;64252;51.094;13.714;2023-03-01T07:20:48;31.58;;;13.65;;
75655;SDS011;64252;51.094;13.714;2023-03-01T07:23:14;32.22;;;14.07;;
75655;SDS011;64252;51.094;13.714;2023-03-01T07:25:40;29.27;;;13.63;;
75655;SDS011;64252;51.094;13.714;2023-03-01T07:28:07;30.23;;;13.18;;
75655;SDS011;64252;51.094;13.714;2023-03-01T07:30:32;24.70;;;12.15;;
75655;SDS011;64252;51.094;13.714;2023-03-01T07:32:58;34.03;;;15.00;;
75655;SDS011;64252;51.094;13.714;2023-03-01T07:35:27;31.52;;;14.75;;
75655;SDS011;64252;51.094;13.714;2023-03-01T07:37:53;32.22;;;14.43;;
75655;SDS011;64252;51.094;13.714;2023-03-01T07:40:19;28.48;;;13.45;;
75655;SDS011;64252;51.094;13.714;2023-03-01T07:42:45;32.10;;;14.35;;
75655;SDS011;64252;51.094;13.714;2023-03-01T07:45:10;29.85;;;13.57;;
75655;SDS011;64252;51.094;13.714;2023-03-01T07:47:38;32.22;;;13.68;;
75655;SDS011;64252;51.094;13.714;2023-03-01T07:50:04;31.80;;;13.30;;
75655;SDS011;64252;51.094;13.714;2023-03-01T07:52:30;33.28;;;14.73;;
75655;SDS011;64252;51.094;13.714;2023-03-01T07:54:56;28.90;;;13.35;;
75655;SDS011;64252;51.094;13.714;2023-03-01T07:57:22;29.45;;;13.18;;
75655;SDS011;64252;51.094;13.714;2023-03-01T07:59:48;31.52;;;13.32;;
75655;SDS011;64252;51.094;13.714;2023-03-01T08:02:13;29.65;;;14.48;;
75655;SDS011;64252;51.094;13.714;2023-03-01T08:04:41;25.77;;;14.23;;
75655;SDS011;64252;51.094;13.714;2023-03-01T08:07:07;28.23;;;12.57;;
75655;SDS011;64252;51.094;13.714;2023-03-01T08:09:36;30.13;;;13.25;;
75655;SDS011;64252;51.094;13.714;2023-03-01T08:12:03;28.92;;;13.52;;
75655;SDS011;64252;51.094;13.714;2023-03-01T08:14:31;27.63;;;12.98;;
75655;SDS011;64252;51.094;13.714;2023-03-01T08:16:57;30.35;;;14.45;;
75655;SDS011;64252;51.094;13.714;2023-03-01T08:19:23;31.20;;;14.48;;
75655;SDS011;64252;51.094;13.714;2023-03-01T08:21:49;27.80;;;12.45;;
75655;SDS011;64252;51.094;13.714;2023-03-01T08:24:14;28.20;;;13.43;;
75655;SDS011;64252;51.094;13.714;2023-03-01T08:26:41;27.63;;;13.48;;
75655;SDS011;64252;51.094;13.714;2023-03-01T08:29:06;34.13;;;13.27;;
75655;SDS011;64252;51.094;13.714;2023-03-01T08:31:33;31.33;;;15.02;;
75655;SDS011;64252;51.094;13.714;2023-03-01T08:34:01;27.10;;;13.30;;
75655;SDS011;64252;51.094;13.714;2023-03-01T08:36:31;33.55;;;14.80;;
75655;SDS011;64252;51.094;13.714;2023-03-01T08:38:58;24.73;;;13.20;;
75655;SDS011;64252;51.094;13.714;2023-03-01T08:41:24;31.90;;;14.77;;
75655;SDS011;64252;51.094;13.714;2023-03-01T08:43:51;26.85;;;12.80;;
75655;SDS011;64252;51.094;13.714;2023-03-01T08:46:18;27.15;;;13.45;;
75655;SDS011;64252;51.094;13.714;2023-03-01T08:48:43;28.48;;;12.63;;
75655;SDS011;64252;51.094;13.714;2023-03-01T08:51:10;32.97;;;13.88;;
75655;SDS011;64252;51.094;13.714;2023-03-01T08:53:38;25.55;;;13.20;;
75655;SDS011;64252;51.094;13.714;2023-03-01T08:56:04;32.33;;;15.15;;
75655;SDS011;64252;51.094;13.714;2023-03-01T08:58:30;28.13;;;13.02;;
75655;SDS011;64252;51.094;13.714;2023-03-01T09:00:55;28.77;;;13.68;;
75655;SDS011;64252;51.094;13.714;2023-03-01T09:03:24;27.33;;;14.40;;
75655;SDS011;64252;51.094;13.714;2023-03-01T09:05:51;34.10;;;14.77;;
75655;SDS011;64252;51.094;13.714;2023-03-01T09:08:17;26.80;;;12.98;;
75655;SDS011;64252;51.094;13.714;2023-03-01T09:10:43;26.20;;;14.00;;
75655;SDS011;64252;51.094;13.714;2023-03-01T09:13:09;31.20;;;14.95;;
75655;SDS011;64252;51.094;13.714;2023-03-01T09:15:38;26.75;;;13.48;;
75655;SDS011;64252;51.094;13.714;2023-03-01T09:18:04;31.10;;;14.20;;
75655;SDS011;64252;51.094;13.714;2023-03-01T09:20:31;27.58;;;12.90;;
75655;SDS011;64252;51.094;13.714;2023-03-01T09:22:57;28.27;;;13.25;;
75655;SDS011;64252;51.094;13.714;2023-03-01T09:25:23;27.08;;;13.90;;
75655;SDS011;64252;51.094;13.714;2023-03-01T09:27:53;35.17;;;14.73;;
75655;SDS011;64252;51.094;13.714;2023-03-01T09:30:20;27.05;;;13.70;;
75655;SDS011;64252;51.094;13.714;2023-03-01T09:32:45;30.08;;;14.70;;
75655;SDS011;64252;51.094;13.714;2023-03-01T09:35:11;30.58;;;14.32;;
75655;SDS011;64252;51.094;13.714;2023-03-01T09:37:37;32.05;;;15.13;;
75655;SDS011;64252;51.094;13.714;2023-03-01T09:40:04;28.30;;;12.52;;
75655;SDS011;64252;51.094;13.714;2023-03-01T09:42:32;31.75;;;14.32;;
75655;SDS011;64252;51.094;13.714;2023-03-01T09:47:32;29.05;;;12.57;;
75655;SDS011;64252;51.094;13.714;2023-03-01T09:50:04;23.15;;;11.23;;
75655;SDS011;64252;51.094;13.714;2023-03-01T09:52:41;23.13;;;11.93;;
75655;SDS011;64252;51.094;13.714;2023-03-01T09:55:11;30.88;;;14.57;;
75655;SDS011;64252;51.094;13.714;2023-03-01T09:57:49;30.27;;;14.70;;
75655;SDS011;64252;51.094;13.714;2023-03-01T10:03:15;24.85;;;12.75;;
75655;SDS011;64252;51.094;13.714;2023-03-01T10:05:48;26.80;;;13.18;;
75655;SDS011;64252;51.094;13.714;2023-03-01T10:11:13;28.48;;;13.75;;
75655;SDS011;64252;51.094;13.714;2023-03-01T10:16:18;29.38;;;13.02;;
75655;SDS011;64252;51.094;13.714;2023-03-01T10:19:01;29.90;;;12.80;;
75655;SDS011;64252;51.094;13.714;2023-03-01T10:21:28;21.92;;;12.57;;
75655;SDS011;64252;51.094;13.714;2023-03-01T10:23:58;24.20;;;11.70;;
75655;SDS011;64252;51.094;13.714;2023-03-01T10:26:47;28.55;;;14.20;;
75655;SDS011;64252;51.094;13.714;2023-03-01T10:29:35;28.33;;;12.73;;
75655;SDS011;64252;51.094;13.714;2023-03-01T10:32:05;25.13;;;12.45;;
75655;SDS011;64252;51.094;13.714;2023-03-01T10:34:35;21.90;;;11.07;;
75655;SDS011;64252;51.094;13.714;2023-03-01T10:37:08;25.40;;;11.27;;
75655;SDS011;64252;51.094;13.714;2023-03-01T10:40:06;20.65;;;9.80;;
75655;SDS011;64252;51.094;13.714;2023-03-01T10:48:13;20.70;;;11.20;;
75655;SDS011;64252;51.094;13.714;2023-03-01T10:50:45;22.35;;;10.57;;
75655;SDS011;64252;51.094;13.714;2023-03-01T10:53:20;30.38;;;14.55;;
75655;SDS011;64252;51.094;13.714;2023-03-01T10:58:35;21.63;;;10.70;;
75655;SDS011;64252;51.094;13.714;2023-03-01T11:06:33;19.67;;;9.70;;
75655;SDS011;64252;51.094;13.714;2023-03-01T11:09:19;20.13;;;10.18;;
75655;SDS011;64252;51.094;13.714;2023-03-01T11:11:54;19.05;;;8.65;;
75655;SDS011;64252;51.094;13.714;2023-03-01T11:14:26;16.42;;;8.73;;
75655;SDS011;64252;51.094;13.714;2023-03-01T11:16:58;20.02;;;9.40;;
75655;SDS011;64252;51.094;13.714;2023-03-01T11:19:26;17.98;;;9.38;;
75655;SDS011;64252;51.094;13.714;2023-03-01T11:22:11;17.75;;;8.80;;
75655;SDS011;64252;51.094;13.714;2023-03-01T11:24:47;16.02;;;9.02;;
75655;SDS011;64252;51.094;13.714;2023-03-01T11:27:26;17.55;;;8.98;;
75655;SDS011;64252;51.094;13.714;2023-03-01T11:30:01;18.55;;;8.75;;
75655;SDS011;64252;51.094;13.714;2023-03-01T11:33:33;15.20;;;9.07;;
75655;SDS011;64252;51.094;13.714;2023-03-01T11:35:33;19.55;;;8.32;;
75655;SDS011;64252;51.094;13.714;2023-03-01T11:40:51;14.48;;;8.07;;
75655;SDS011;64252;51.094;13.714;2023-03-01T11:51:53;17.35;;;8.40;;
75655;SDS011;64252;51.094;13.714;2023-03-01T12:06:17;14.27;;;6.97;;
75655;SDS011;64252;51.094;13.714;2023-03-01T12:25:31;18.65;;;9.80;;
75655;SDS011;64252;51.094;13.714;2023-03-01T12:28:11;20.40;;;10.15;;
75655;SDS011;64252;51.094;13.714;2023-03-01T12:30:42;17.60;;;9.75;;
75655;SDS011;64252;51.094;13.714;2023-03-01T12:38:50;18.50;;;10.20;;
75655;SDS011;64252;51.094;13.714;2023-03-01T12:49:08;19.98;;;10.05;;
75655;SDS011;64252;51.094;13.714;2023-03-01T12:51:39;16.05;;;8.27;;
75655;SDS011;64252;51.094;13.714;2023-03-01T12:54:15;20.10;;;9.00;;
75655;SDS011;64252;51.094;13.714;2023-03-01T12:59:19;15.90;;;7.82;;
75655;SDS011;64252;51.094;13.714;2023-03-01T13:01:51;15.95;;;8.57;;
75655;SDS011;64252;51.094;13.714;2023-03-01T13:17:49;19.92;;;9.52;;
75655;SDS011;64252;51.094;13.714;2023-03-01T13:20:16;19.73;;;8.93;;
75655;SDS011;64252;51.094;13.714;2023-03-01T13:22:45;17.35;;;8.55;;
75655;SDS011;64252;51.094;13.714;2023-03-01T13:25:14;16.10;;;8.73;;
75655;SDS011;64252;51.094;13.714;2023-03-01T13:27:42;17.40;;;8.05;;
75655;SDS011;64252;51.094;13.714;2023-03-01T13:35:49;18.65;;;8.50;;
75655;SDS011;64252;51.094;13.714;2023-03-01T13:41:03;15.90;;;7.78;;
75655;SDS011;64252;51.094;13.714;2023-03-01T13:43:31;18.20;;;8.27;;
75655;SDS011;64252;51.094;13.714;2023-03-01T13:45:59;16.38;;;8.80;;
75655;SDS011;64252;51.094;13.714;2023-03-01T13:48:27;17.95;;;8.13;;
75655;SDS011;64252;51.094;13.714;2023-03-01T13:51:05;16.40;;;8.30;;
75655;SDS011;64252;51.094;13.714;2023-03-01T13:53:35;16.27;;;8.48;;
75655;SDS011;64252;51.094;13.714;2023-03-01T13:56:47;19.52;;;9.10;;
75655;SDS011;64252;51.094;13.714;2023-03-01T13:59:02;19.70;;;8.90;;
75655;SDS011;64252;51.094;13.714;2023-03-01T14:01:32;18.88;;;8.23;;
75655;SDS011;64252;51.094;13.714;2023-03-01T14:04:01;16.35;;;8.00;;
75655;SDS011;64252;51.094;13.714;2023-03-01T14:06:30;16.27;;;8.85;;
75655;SDS011;64252;51.094;13.714;2023-03-01T14:09:13;15.23;;;7.70;;
75655;SDS011;64252;51.094;13.714;2023-03-01T14:12:02;16.92;;;8.15;;
75655;SDS011;64252;51.094;13.714;2023-03-01T14:17:37;17.20;;;8.05;;
75655;SDS011;64252;51.094;13.714;2023-03-01T14:20:11;18.13;;;8.35;;
75655;SDS011;64252;51.094;13.714;2023-03-01T14:22:48;17.98;;;7.68;;
75655;SDS011;64252;51.094;13.714;2023-03-01T14:25:36;18.45;;;8.68;;
75655;SDS011;64252;51.094;13.714;2023-03-01T14:30:57;16.40;;;8.93;;
75655;SDS011;64252;51.094;13.714;2023-03-01T14:33:31;19.70;;;9.88;;
75655;SDS011;64252;51.094;13.714;2023-03-01T14:36:12;16.42;;;7.78;;
75655;SDS011;64252;51.094;13.714;2023-03-01T14:38:39;16.67;;;8.45;;
75655;SDS011;64252;51.094;13.714;2023-03-01T14:41:09;17.27;;;10.23;;
75655;SDS011;64252;51.094;13.714;2023-03-01T14:43:35;18.08;;;9.65;;
75655;SDS011;64252;51.094;13.714;2023-03-01T14:46:06;17.55;;;9.65;;
75655;SDS011;64252;51.094;13.714;2023-03-01T14:48:31;20.05;;;8.20;;
75655;SDS011;64252;51.094;13.714;2023-03-01T14:50:57;17.40;;;9.35;;
75655;SDS011;64252;51.094;13.714;2023-03-01T14:53:25;19.88;;;9.35;;
75655;SDS011;64252;51.094;13.714;2023-03-01T14:55:55;14.90;;;8.60;;
75655;SDS011;64252;51.094;13.714;2023-03-01T14:58:27;17.77;;;9.60;;
75655;SDS011;64252;51.094;13.714;2023-03-01T15:01:00;16.02;;;8.38;;
75655;SDS011;64252;51.094;13.714;2023-03-01T15:06:06;19.50;;;9.00;;
75655;SDS011;64252;51.094;13.714;2023-03-01T15:08:33;15.52;;;8.02;;
75655;SDS011;64252;51.094;13.714;2023-03-01T15:11:03;16.45;;;8.48;;
75655;SDS011;64252;51.094;13.714;2023-03-01T15:13:32;17.55;;;9.05;;
75655;SDS011;64252;51.094;13.714;2023-03-01T15:16:18;16.42;;;8.15;;
75655;SDS011;64252;51.094;13.714;2023-03-01T15:19:06;16.50;;;8.20;;
75655;SDS011;64252;51.094;13.714;2023-03-01T15:21:32;14.55;;;8.05;;
75655;SDS011;64252;51.094;13.714;2023-03-01T15:26:45;15.63;;;8.57;;
75655;SDS011;64252;51.094;13.714;2023-03-01T15:29:32;13.63;;;7.63;;
75655;SDS011;64252;51.094;13.714;2023-03-01T15:32:27;17.45;;;8.10;;
75655;SDS011;64252;51.094;13.714;2023-03-01T15:34:59;13.90;;;7.32;;
75655;SDS011;64252;51.094;13.714;2023-03-01T15:37:40;17.40;;;8.52;;
75655;SDS011;64252;51.094;13.714;2023-03-01T15:40:28;15.15;;;7.57;;
75655;SDS011;64252;51.094;13.714;2023-03-01T15:43:02;16.13;;;7.82;;
75655;SDS011;64252;51.094;13.714;2023-03-01T15:45:31;17.90;;;8.40;;
75655;SDS011;64252;51.094;13.714;2023-03-01T15:48:03;17.08;;;7.40;;
75655;SDS011;64252;51.094;13.714;2023-03-01T15:50:34;15.65;;;7.30;;
75655;SDS011;64252;51.094;13.714;2023-03-01T15:53:06;14.95;;;7.65;;
75655;SDS011;64252;51.094;13.714;2023-03-01T15:55:36;14.15;;;7.00;;
75655;SDS011;64252;51.094;13.714;2023-03-01T15:58:03;21.88;;;8.55;;
75655;SDS011;64252;51.094;13.714;2023-03-01T16:00:32;14.75;;;7.25;;
75655;SDS011;64252;51.094;13.714;2023-03-01T16:02:58;17.25;;;8.25;;
75655;SDS011;64252;51.094;13.714;2023-03-01T16:05:25;15.13;;;8.43;;
75655;SDS011;64252;51.094;13.714;2023-03-01T16:07:58;16.35;;;8.27;;
75655;SDS011;64252;51.094;13.714;2023-03-01T16:10:25;13.07;;;6.72;;
75655;SDS011;64252;51.094;13.714;2023-03-01T16:12:52;12.95;;;6.25;;
75655;SDS011;64252;51.094;13.714;2023-03-01T16:15:23;14.38;;;7.15;;
75655;SDS011;64252;51.094;13.714;2023-03-01T16:17:56;14.63;;;6.68;;
75655;SDS011;64252;51.094;13.714;2023-03-01T16:20:26;14.23;;;6.13;;
75655;SDS011;64252;51.094;13.714;2023-03-01T16:22:53;13.35;;;6.32;;
75655;SDS011;64252;51.094;13.714;2023-03-01T16:25:19;14.98;;;7.05;;
75655;SDS011;64252;51.094;13.714;2023-03-01T16:27:47;12.23;;;6.57;;
75655;SDS011;64252;51.094;13.714;2023-03-01T16:30:15;13.13;;;6.78;;
75655;SDS011;64252;51.094;13.714;2023-03-01T16:32:44;18.08;;;8.93;;
75655;SDS011;64252;51.094;13.714;2023-03-01T16:35:12;10.63;;;5.60;;